sensor_id;sensor_type;location;lat;lon;timestamp;pressure;altitude;pressure_sealevel;temperature;humidity
58927;BME280;44712;52.530;9.760;2023-02-15T00:00:05;102447.56;;;0.77;100.00
58927;BME280;44712;52.530;9.760;2023-02-15T00:02:34;102453.72;;;0.76;100.00
58927;BME280;44712;52.530;9.760;2023-02-15T00:05:01;102440.91;;;0.69;100.00
58927;BME280;44712;52.530;9.760;2023-02-15T00:07:27;102442.41;;;0.63;100.00
58927;BME280;44712;52.530;9.760;2023-02-15T00:09:54;102443.16;;;0.61;100.00
58927;BME280;44712;52.530;9.760;2023-02-15T00:12:21;102436.72;;;0.57;100.00
58927;BME280;44712;52.530;9.760;2023-02-15T00:14:47;102441.06;;;0.55;100.00
58927;BME280;44712;52.530;9.760;2023-02-15T00:17:41;102427.56;;;0.52;100.00
58927;BME280;44712;52.530;9.760;2023-02-15T00:20:08;102433.91;;;0.54;100.00
58927;BME280;44712;52.530;9.760;2023-02-15T00:22:35;102437.31;;;0.52;100.00
58927;BME280;44712;52.530;9.760;2023-02-15T00:25:08;102427.56;;;0.52;100.00
58927;BME280;44712;52.530;9.760;2023-02-15T00:27:34;102415.84;;;0.48;100.00
58927;BME280;44712;52.530;9.760;2023-02-15T00:30:02;102416.72;;;0.49;100.00
58927;BME280;44712;52.530;9.760;2023-02-15T00:32:29;102413.25;;;0.50;100.00
58927;BME280;44712;52.530;9.760;2023-02-15T00:34:56;102409.56;;;0.48;100.00
58927;BME280;44712;52.530;9.760;2023-02-15T00:37:24;102412.06;;;0.45;100.00
58927;BME280;44712;52.530;9.760;2023-02-15T00:39:50;102409.25;;;0.42;100.00
58927;BME280;44712;52.530;9.760;2023-02-15T00:42:17;102412.56;;;0.38;100.00
58927;BME280;44712;52.530;9.760;2023-02-15T00:44:44;102404.06;;;0.28;100.00
58927;BME280;44712;52.530;9.760;2023-02-15T00:47:10;102416.88;;;0.19;100.00
58927;BME280;44712;52.530;9.760;2023-02-15T00:49:37;102410.19;;;0.11;100.00
58927;BME280;44712;52.530;9.760;2023-02-15T00:52:04;102418.66;;;0.04;100.00
58927;BME280;44712;52.530;9.760;2023-02-15T00:54:30;102408.50;;;-0.04;100.00
58927;BME280;44712;52.530;9.760;2023-02-15T00:56:58;102408.94;;;-0.11;100.00
58927;BME280;44712;52.530;9.760;2023-02-15T00:59:25;102410.34;;;-0.18;100.00
58927;BME280;44712;52.530;9.760;2023-02-15T01:01:52;102411.09;;;-0.20;100.00
58927;BME280;44712;52.530;9.760;2023-02-15T01:04:19;102409.28;;;-0.21;100.00
58927;BME280;44712;52.530;9.760;2023-02-15T01:06:46;102414.41;;;-0.24;100.00
58927;BME280;44712;52.530;9.760;2023-02-15T01:09:12;102416.06;;;-0.26;100.00
58927;BME280;44712;52.530;9.760;2023-02-15T01:11:40;102414.22;;;-0.27;100.00
58927;BME280;44712;52.530;9.760;2023-02-15T01:14:06;102410.59;;;-0.29;100.00
58927;BME280;44712;52.530;9.760;2023-02-15T01:16:37;102406.91;;;-0.31;100.00
58927;BME280;44712;52.530;9.760;2023-02-15T01:19:04;102404.16;;;-0.33;100.00
58927;BME280;44712;52.530;9.760;2023-02-15T01:21:32;102404.06;;;-0.35;100.00
58927;BME280;44712;52.530;9.760;2023-02-15T01:24:02;102395.06;;;-0.37;100.00
58927;BME280;44712;52.530;9.760;2023-02-15T01:26:29;102399.56;;;-0.36;100.00
58927;BME280;44712;52.530;9.760;2023-02-15T01:28:57;102402.22;;;-0.36;100.00
58927;BME280;44712;52.530;9.760;2023-02-15T01:31:24;102394.06;;;-0.39;100.00
58927;BME280;44712;52.530;9.760;2023-02-15T01:33:51;102393.13;;;-0.39;100.00
58927;BME280;44712;52.530;9.760;2023-02-15T01:36:21;102395.81;;;-0.39;100.00
58927;BME280;44712;52.530;9.760;2023-02-15T01:38:47;102394.59;;;-0.44;100.00
58927;BME280;44712;52.530;9.760;2023-02-15T01:41:15;102387.38;;;-0.47;100.00
58927;BME280;44712;52.530;9.760;2023-02-15T01:44:01;102384.53;;;-0.50;100.00
58927;BME280;44712;52.530;9.760;2023-02-15T01:46:35;102383.53;;;-0.52;100.00
58927;BME280;44712;52.530;9.760;2023-02-15T01:49:24;102385.84;;;-0.58;100.00
58927;BME280;44712;52.530;9.760;2023-02-15T01:51:52;102383.25;;;-0.57;100.00
58927;BME280;44712;52.530;9.760;2023-02-15T01:54:23;102384.00;;;-0.59;100.00
58927;BME280;44712;52.530;9.760;2023-02-15T01:56:55;102389.16;;;-0.62;100.00
58927;BME280;44712;52.530;9.760;2023-02-15T01:59:25;102373.00;;;-0.65;100.00
58927;BME280;44712;52.530;9.760;2023-02-15T02:01:54;102370.22;;;-0.67;100.00
58927;BME280;44712;52.530;9.760;2023-02-15T02:04:33;102375.56;;;-0.67;100.00
58927;BME280;44712;52.530;9.760;2023-02-15T02:07:02;102374.47;;;-0.71;100.00
58927;BME280;44712;52.530;9.760;2023-02-15T02:09:31;102371.69;;;-0.72;100.00
58927;BME280;44712;52.530;9.760;2023-02-15T02:11:58;102375.22;;;-0.73;100.00
58927;BME280;44712;52.530;9.760;2023-02-15T02:14:25;102375.38;;;-0.70;100.00
58927;BME280;44712;52.530;9.760;2023-02-15T02:17:13;102365.47;;;-0.73;100.00
58927;BME280;44712;52.530;9.760;2023-02-15T02:22:50;102356.50;;;-0.75;100.00
58927;BME280;44712;52.530;9.760;2023-02-15T02:28:46;102338.16;;;-0.85;100.00
58927;BME280;44712;52.530;9.760;2023-02-15T02:36:54;102328.44;;;-0.99;100.00
58927;BME280;44712;52.530;9.760;2023-02-15T02:39:35;102337.06;;;-1.04;100.00
58927;BME280;44712;52.530;9.760;2023-02-15T02:42:43;102328.06;;;-1.06;100.00
58927;BME280;44712;52.530;9.760;2023-02-15T02:45:20;102325.06;;;-1.12;100.00
58927;BME280;44712;52.530;9.760;2023-02-15T02:50:25;102315.72;;;-1.20;100.00
58927;BME280;44712;52.530;9.760;2023-02-15T02:52:55;102326.22;;;-1.22;100.00
58927;BME280;44712;52.530;9.760;2023-02-15T02:55:38;102314.59;;;-1.24;100.00
58927;BME280;44712;52.530;9.760;2023-02-15T02:58:13;102315.34;;;-1.26;100.00
58927;BME280;44712;52.530;9.760;2023-02-15T03:01:14;102311.88;;;-1.25;100.00
58927;BME280;44712;52.530;9.760;2023-02-15T03:03:59;102311.94;;;-1.24;100.00
58927;BME280;44712;52.530;9.760;2023-02-15T03:06:44;102305.53;;;-1.27;100.00
58927;BME280;44712;52.530;9.760;2023-02-15T03:09:25;102304.53;;;-1.29;100.00
58927;BME280;44712;52.530;9.760;2023-02-15T03:12:01;102296.72;;;-1.26;100.00
58927;BME280;44712;52.530;9.760;2023-02-15T03:14:36;102290.31;;;-1.30;100.00
58927;BME280;44712;52.530;9.760;2023-02-15T03:17:04;102294.63;;;-1.32;100.00
58927;BME280;44712;52.530;9.760;2023-02-15T03:19:35;102295.44;;;-1.33;100.00
58927;BME280;44712;52.530;9.760;2023-02-15T03:22:07;102296.19;;;-1.36;100.00
58927;BME280;44712;52.530;9.760;2023-02-15T03:24:43;102298.03;;;-1.35;100.00
58927;BME280;44712;52.530;9.760;2023-02-15T03:27:15;102291.78;;;-1.35;100.00
58927;BME280;44712;52.530;9.760;2023-02-15T03:29:55;102291.69;;;-1.37;100.00
58927;BME280;44712;52.530;9.760;2023-02-15T03:32:29;102294.34;;;-1.37;100.00
58927;BME280;44712;52.530;9.760;2023-02-15T03:34:58;102289.03;;;-1.37;100.00
58927;BME280;44712;52.530;9.760;2023-02-15T03:37:47;102283.72;;;-1.37;100.00
58927;BME280;44712;52.530;9.760;2023-02-15T03:40:29;102285.38;;;-1.39;100.00
58927;BME280;44712;52.530;9.760;2023-02-15T03:45:59;102289.31;;;-1.47;100.00
58927;BME280;44712;52.530;9.760;2023-02-15T03:48:39;102295.22;;;-1.51;100.00
58927;BME280;44712;52.530;9.760;2023-02-15T03:51:15;102291.59;;;-1.53;100.00
58927;BME280;44712;52.530;9.760;2023-02-15T03:56:30;102305.31;;;-1.60;100.00
58927;BME280;44712;52.530;9.760;2023-02-15T03:58:59;102303.47;;;-1.61;100.00
58927;BME280;44712;52.530;9.760;2023-02-15T04:01:55;102300.75;;;-1.63;100.00
58927;BME280;44712;52.530;9.760;2023-02-15T04:07:02;102298.72;;;-1.67;100.00
58927;BME280;44712;52.530;9.760;2023-02-15T04:09:28;102297.78;;;-1.67;100.00
58927;BME280;44712;52.530;9.760;2023-02-15T04:12:14;102292.56;;;-1.66;100.00
58927;BME280;44712;52.530;9.760;2023-02-15T04:14:40;102288.09;;;-1.67;100.00
58927;BME280;44712;52.530;9.760;2023-02-15T04:17:26;102287.16;;;-1.67;100.00
58927;BME280;44712;52.530;9.760;2023-02-15T04:19:52;102278.19;;;-1.70;100.00
58927;BME280;44712;52.530;9.760;2023-02-15T04:22:38;102277.16;;;-1.72;100.00
58927;BME280;44712;52.530;9.760;2023-02-15T04:25:23;102279.00;;;-1.71;100.00
58927;BME280;44712;52.530;9.760;2023-02-15T04:27:52;102264.63;;;-1.74;100.00
58927;BME280;44712;52.530;9.760;2023-02-15T04:30:21;102269.75;;;-1.77;100.00
58927;BME280;44712;52.530;9.760;2023-02-15T04:32:50;102270.88;;;-1.74;100.00
58927;BME280;44712;52.530;9.760;2023-02-15T04:35:19;102267.38;;;-1.73;100.00
58927;BME280;44712;52.530;9.760;2023-02-15T04:37:45;102274.34;;;-1.75;100.00
58927;BME280;44712;52.530;9.760;2023-02-15T04:40:14;102275.78;;;-1.80;100.00
58927;BME280;44712;52.530;9.760;2023-02-15T04:42:47;102277.63;;;-1.79;100.00
58927;BME280;44712;52.530;9.760;2023-02-15T04:45:13;102266.78;;;-1.82;100.00
58927;BME280;44712;52.530;9.760;2023-02-15T04:47:41;102260.59;;;-1.82;100.00
58927;BME280;44712;52.530;9.760;2023-02-15T04:50:35;102256.19;;;-1.82;100.00
58927;BME280;44712;52.530;9.760;2023-02-15T04:53:01;102254.53;;;-1.80;100.00
58927;BME280;44712;52.530;9.760;2023-02-15T04:55:28;102258.03;;;-1.81;100.00
58927;BME280;44712;52.530;9.760;2023-02-15T04:57:54;102254.38;;;-1.83;100.00
58927;BME280;44712;52.530;9.760;2023-02-15T05:00:21;102256.00;;;-1.85;100.00
58927;BME280;44712;52.530;9.760;2023-02-15T05:02:48;102256.72;;;-1.88;100.00
58927;BME280;44712;52.530;9.760;2023-02-15T05:05:16;102261.13;;;-1.88;100.00
58927;BME280;44712;52.530;9.760;2023-02-15T05:07:42;102251.50;;;-1.86;100.00
58927;BME280;44712;52.530;9.760;2023-02-15T05:10:09;102253.16;;;-1.88;100.00
58927;BME280;44712;52.530;9.760;2023-02-15T05:12:36;102258.38;;;-1.90;100.00
58927;BME280;44712;52.530;9.760;2023-02-15T05:15:05;102253.59;;;-1.95;100.00
58927;BME280;44712;52.530;9.760;2023-02-15T05:17:31;102250.75;;;-1.98;100.00
58927;BME280;44712;52.530;9.760;2023-02-15T05:20:00;102247.06;;;-2.00;100.00
58927;BME280;44712;52.530;9.760;2023-02-15T05:22:31;102245.25;;;-2.02;100.00
58927;BME280;44712;52.530;9.760;2023-02-15T05:24:57;102238.13;;;-2.03;100.00
58927;BME280;44712;52.530;9.760;2023-02-15T05:27:43;102234.66;;;-2.02;100.00
58927;BME280;44712;52.530;9.760;2023-02-15T05:30:35;102235.47;;;-2.03;100.00
58927;BME280;44712;52.530;9.760;2023-02-15T05:33:02;102231.59;;;-2.08;100.00
58927;BME280;44712;52.530;9.760;2023-02-15T05:35:29;102215.66;;;-2.08;100.00
58927;BME280;44712;52.530;9.760;2023-02-15T05:37:56;102218.31;;;-2.08;100.00
58927;BME280;44712;52.530;9.760;2023-02-15T05:40:22;102220.81;;;-2.11;100.00
58927;BME280;44712;52.530;9.760;2023-02-15T05:42:49;102217.75;;;-2.17;100.00
58927;BME280;44712;52.530;9.760;2023-02-15T05:45:16;102217.56;;;-2.20;100.00
58927;BME280;44712;52.530;9.760;2023-02-15T05:47:42;102216.53;;;-2.22;100.00
58927;BME280;44712;52.530;9.760;2023-02-15T05:50:10;102216.75;;;-2.19;100.00
58927;BME280;44712;52.530;9.760;2023-02-15T05:52:37;102213.06;;;-2.21;100.00
58927;BME280;44712;52.530;9.760;2023-02-15T05:55:05;102216.75;;;-2.19;100.00
58927;BME280;44712;52.530;9.760;2023-02-15T05:57:31;102221.13;;;-2.20;100.00
58927;BME280;44712;52.530;9.760;2023-02-15T05:59:58;102226.34;;;-2.21;100.00
58927;BME280;44712;52.530;9.760;2023-02-15T06:02:25;102224.59;;;-2.21;100.00
58927;BME280;44712;52.530;9.760;2023-02-15T06:04:51;102230.84;;;-2.20;100.00
58927;BME280;44712;52.530;9.760;2023-02-15T06:07:18;102229.00;;;-2.21;100.00
58927;BME280;44712;52.530;9.760;2023-02-15T06:09:44;102230.63;;;-2.23;100.00
58927;BME280;44712;52.530;9.760;2023-02-15T06:12:11;102232.28;;;-2.25;100.00
58927;BME280;44712;52.530;9.760;2023-02-15T06:14:38;102232.28;;;-2.25;100.00
58927;BME280;44712;52.530;9.760;2023-02-15T06:17:05;102242.81;;;-2.27;100.00
58927;BME280;44712;52.530;9.760;2023-02-15T06:19:31;102238.56;;;-2.10;100.00
58927;BME280;44712;52.530;9.760;2023-02-15T06:21:58;102236.63;;;-1.54;100.00
58927;BME280;44712;52.530;9.760;2023-02-15T06:24:25;102240.72;;;-1.74;100.00
58927;BME280;44712;52.530;9.760;2023-02-15T06:26:51;102230.91;;;-1.90;100.00
58927;BME280;44712;52.530;9.760;2023-02-15T06:29:18;102226.06;;;-1.97;100.00
58927;BME280;44712;52.530;9.760;2023-02-15T06:31:45;102222.09;;;-2.04;100.00
58927;BME280;44712;52.530;9.760;2023-02-15T06:34:12;102227.09;;;-2.09;100.00
58927;BME280;44712;52.530;9.760;2023-02-15T06:36:39;102227.38;;;-2.19;100.00
58927;BME280;44712;52.530;9.760;2023-02-15T06:39:05;102220.00;;;-2.23;100.00
58927;BME280;44712;52.530;9.760;2023-02-15T06:41:32;102219.81;;;-2.26;100.00
58927;BME280;44712;52.530;9.760;2023-02-15T06:43:59;102220.66;;;-1.84;100.00
58927;BME280;44712;52.530;9.760;2023-02-15T06:46:26;102222.47;;;-1.98;100.00
58927;BME280;44712;52.530;9.760;2023-02-15T06:48:53;102220.97;;;-2.08;100.00
58927;BME280;44712;52.530;9.760;2023-02-15T06:51:20;102220.59;;;-2.14;100.00
58927;BME280;44712;52.530;9.760;2023-02-15T06:53:46;102219.41;;;-2.19;100.00
58927;BME280;44712;52.530;9.760;2023-02-15T06:56:13;102215.09;;;-2.17;100.00
58927;BME280;44712;52.530;9.760;2023-02-15T06:58:40;102219.09;;;-2.24;100.00
58927;BME280;44712;52.530;9.760;2023-02-15T07:01:08;102217.81;;;-2.30;100.00
58927;BME280;44712;52.530;9.760;2023-02-15T07:03:35;102217.81;;;-2.30;100.00
58927;BME280;44712;52.530;9.760;2023-02-15T07:06:03;102214.16;;;-2.32;100.00
58927;BME280;44712;52.530;9.760;2023-02-15T07:08:35;102215.78;;;-2.34;100.00
58927;BME280;44712;52.530;9.760;2023-02-15T07:11:03;102215.59;;;-2.38;100.00
58927;BME280;44712;52.530;9.760;2023-02-15T07:13:49;102213.66;;;-2.40;100.00
58927;BME280;44712;52.530;9.760;2023-02-15T07:16:16;102216.41;;;-2.39;100.00
58927;BME280;44712;52.530;9.760;2023-02-15T07:18:42;102220.69;;;-2.41;100.00
58927;BME280;44712;52.530;9.760;2023-02-15T07:21:09;102212.09;;;-2.37;100.00
58927;BME280;44712;52.530;9.760;2023-02-15T07:23:37;102228.59;;;-2.27;100.00
58927;BME280;44712;52.530;9.760;2023-02-15T07:26:05;102232.28;;;-2.25;100.00
58927;BME280;44712;52.530;9.760;2023-02-15T07:28:33;102229.53;;;-2.27;100.00
58927;BME280;44712;52.530;9.760;2023-02-15T07:31:04;102226.16;;;-2.24;100.00
58927;BME280;44712;52.530;9.760;2023-02-15T07:33:31;102227.97;;;-2.23;100.00
58927;BME280;44712;52.530;9.760;2023-02-15T07:36:01;102222.88;;;-2.20;100.00
58927;BME280;44712;52.530;9.760;2023-02-15T07:38:32;102226.25;;;-2.23;100.00
58927;BME280;44712;52.530;9.760;2023-02-15T07:41:01;102227.38;;;-2.19;100.00
58927;BME280;44712;52.530;9.760;2023-02-15T07:43:28;102218.38;;;-2.21;100.00
58927;BME280;44712;52.530;9.760;2023-02-15T07:46:04;102218.97;;;-2.12;100.00
58927;BME280;44712;52.530;9.760;2023-02-15T07:48:31;102222.00;;;-2.06;100.00
58927;BME280;44712;52.530;9.760;2023-02-15T07:51:02;102219.53;;;-2.03;100.00
58927;BME280;44712;52.530;9.760;2023-02-15T07:53:30;102205.63;;;-1.98;100.00
58927;BME280;44712;52.530;9.760;2023-02-15T07:55:59;102214.06;;;-1.91;100.00
58927;BME280;44712;52.530;9.760;2023-02-15T07:58:27;102211.69;;;-1.86;100.00
58927;BME280;44712;52.530;9.760;2023-02-15T08:01:17;102209.31;;;-1.81;100.00
58927;BME280;44712;52.530;9.760;2023-02-15T08:03:44;102204.28;;;-1.77;100.00
58927;BME280;44712;52.530;9.760;2023-02-15T08:06:10;102203.56;;;-1.74;100.00
58927;BME280;44712;52.530;9.760;2023-02-15T08:08:41;102189.94;;;-1.65;100.00
58927;BME280;44712;52.530;9.760;2023-02-15T08:11:18;102189.84;;;-1.52;100.00
58927;BME280;44712;52.530;9.760;2023-02-15T08:14:19;102186.06;;;-1.41;100.00
58927;BME280;44712;52.530;9.760;2023-02-15T08:19:21;102177.22;;;-1.10;100.00
58927;BME280;44712;52.530;9.760;2023-02-15T08:21:51;102175.31;;;-0.81;100.00
58927;BME280;44712;52.530;9.760;2023-02-15T08:24:20;102169.78;;;-0.53;100.00
58927;BME280;44712;52.530;9.760;2023-02-15T08:26:48;102172.19;;;-0.24;100.00
58927;BME280;44712;52.530;9.760;2023-02-15T08:29:17;102170.53;;;-0.06;100.00
58927;BME280;44712;52.530;9.760;2023-02-15T08:31:44;102167.38;;;0.02;100.00
58927;BME280;44712;52.530;9.760;2023-02-15T08:34:15;102170.34;;;0.24;100.00
58927;BME280;44712;52.530;9.760;2023-02-15T08:36:42;102166.81;;;0.42;100.00
58927;BME280;44712;52.530;9.760;2023-02-15T08:39:11;102164.81;;;0.56;100.00
58927;BME280;44712;52.530;9.760;2023-02-15T08:41:41;102166.88;;;0.61;100.00
58927;BME280;44712;52.530;9.760;2023-02-15T08:44:08;102158.38;;;0.69;100.00
58927;BME280;44712;52.530;9.760;2023-02-15T08:46:39;102163.09;;;0.74;100.00
58927;BME280;44712;52.530;9.760;2023-02-15T08:49:06;102157.31;;;0.83;100.00
58927;BME280;44712;52.530;9.760;2023-02-15T08:51:34;102146.09;;;0.90;100.00
58927;BME280;44712;52.530;9.760;2023-02-15T08:54:04;102147.78;;;1.06;100.00
58927;BME280;44712;52.530;9.760;2023-02-15T08:56:35;102145.53;;;1.15;100.00
58927;BME280;44712;52.530;9.760;2023-02-15T08:59:03;102145.06;;;1.24;100.00
58927;BME280;44712;52.530;9.760;2023-02-15T09:01:32;102151.00;;;1.37;100.00
58927;BME280;44712;52.530;9.760;2023-02-15T09:04:01;102148.31;;;1.56;100.00
58927;BME280;44712;52.530;9.760;2023-02-15T09:06:28;102142.94;;;1.74;100.00
58927;BME280;44712;52.530;9.760;2023-02-15T09:09:00;102141.03;;;1.91;100.00
58927;BME280;44712;52.530;9.760;2023-02-15T09:11:28;102142.47;;;2.04;100.00
58927;BME280;44712;52.530;9.760;2023-02-15T09:14:01;102143.81;;;2.14;100.00
58927;BME280;44712;52.530;9.760;2023-02-15T09:16:31;102149.69;;;2.26;100.00
58927;BME280;44712;52.530;9.760;2023-02-15T09:18:58;102153.88;;;2.41;100.00
58927;BME280;44712;52.530;9.760;2023-02-15T09:21:25;102134.84;;;2.54;100.00
58927;BME280;44712;52.530;9.760;2023-02-15T09:23:58;102140.81;;;2.70;100.00
58927;BME280;44712;52.530;9.760;2023-02-15T09:26:26;102140.03;;;2.93;100.00
58927;BME280;44712;52.530;9.760;2023-02-15T09:28:57;102137.34;;;3.16;100.00
58927;BME280;44712;52.530;9.760;2023-02-15T09:31:26;102144.03;;;3.27;100.00
58927;BME280;44712;52.530;9.760;2023-02-15T09:33:54;102134.78;;;3.42;100.00
58927;BME280;44712;52.530;9.760;2023-02-15T09:36:31;102137.22;;;3.58;100.00
58927;BME280;44712;52.530;9.760;2023-02-15T09:50:20;102147.28;;;4.14;100.00
58927;BME280;44712;52.530;9.760;2023-02-15T09:53:27;102129.69;;;4.22;100.00
58927;BME280;44712;52.530;9.760;2023-02-15T09:56:09;102130.28;;;4.39;100.00
58927;BME280;44712;52.530;9.760;2023-02-15T10:04:42;102123.13;;;4.93;100.00
58927;BME280;44712;52.530;9.760;2023-02-15T10:07:48;102124.53;;;5.09;100.00
58927;BME280;44712;52.530;9.760;2023-02-15T10:10:44;102119.53;;;5.21;100.00
58927;BME280;44712;52.530;9.760;2023-02-15T10:16:36;102120.59;;;5.55;100.00
58927;BME280;44712;52.530;9.760;2023-02-15T10:27:18;102118.03;;;6.22;99.60
58927;BME280;44712;52.530;9.760;2023-02-15T10:33:07;102120.16;;;6.70;94.84
58927;BME280;44712;52.530;9.760;2023-02-15T10:38:42;102105.91;;;7.11;94.03
58927;BME280;44712;52.530;9.760;2023-02-15T10:41:46;102118.00;;;7.30;90.27
58927;BME280;44712;52.530;9.760;2023-02-15T10:50:03;102114.00;;;7.52;89.43
58927;BME280;44712;52.530;9.760;2023-02-15T10:55:56;102103.03;;;7.87;86.89
58927;BME280;44712;52.530;9.760;2023-02-15T11:01:37;102098.03;;;8.08;85.58
58927;BME280;44712;52.530;9.760;2023-02-15T11:04:16;102107.22;;;8.19;84.62
58927;BME280;44712;52.530;9.760;2023-02-15T11:06:55;102098.22;;;8.17;82.56
58927;BME280;44712;52.530;9.760;2023-02-15T11:09:26;102093.78;;;8.20;83.49
58927;BME280;44712;52.530;9.760;2023-02-15T11:11:56;102083.91;;;8.21;83.38
58927;BME280;44712;52.530;9.760;2023-02-15T11:17:09;102078.16;;;8.50;83.05
58927;BME280;44712;52.530;9.760;2023-02-15T11:20:04;102065.72;;;8.60;81.50
58927;BME280;44712;52.530;9.760;2023-02-15T11:22:34;102080.00;;;8.52;78.56
58927;BME280;44712;52.530;9.760;2023-02-15T11:25:14;102073.00;;;8.65;78.96
58927;BME280;44712;52.530;9.760;2023-02-15T11:27:46;102077.69;;;8.77;79.38
58927;BME280;44712;52.530;9.760;2023-02-15T11:30:19;102069.59;;;8.77;77.34
58927;BME280;44712;52.530;9.760;2023-02-15T11:32:48;102066.09;;;8.84;76.75
58927;BME280;44712;52.530;9.760;2023-02-15T11:35:28;102068.88;;;8.89;76.10
58927;BME280;44712;52.530;9.760;2023-02-15T11:38:06;102067.38;;;9.10;75.03
58927;BME280;44712;52.530;9.760;2023-02-15T11:40:53;102072.91;;;9.19;73.39
58927;BME280;44712;52.530;9.760;2023-02-15T11:45:49;102063.91;;;9.20;74.32
58927;BME280;44712;52.530;9.760;2023-02-15T11:48:16;102062.09;;;9.19;74.91
58927;BME280;44712;52.530;9.760;2023-02-15T11:50:44;102059.59;;;9.33;73.90
58927;BME280;44712;52.530;9.760;2023-02-15T11:53:19;102049.91;;;9.49;71.65
58927;BME280;44712;52.530;9.760;2023-02-15T11:55:52;102049.94;;;9.55;70.44
58927;BME280;44712;52.530;9.760;2023-02-15T12:01:16;102040.28;;;9.74;70.32
58927;BME280;44712;52.530;9.760;2023-02-15T12:03:48;102044.88;;;9.86;68.03
58927;BME280;44712;52.530;9.760;2023-02-15T12:06:35;102041.28;;;9.82;68.07
58927;BME280;44712;52.530;9.760;2023-02-15T12:26:30;102026.50;;;10.40;65.15
58927;BME280;44712;52.530;9.760;2023-02-15T12:29:00;102021.88;;;10.31;65.54
58927;BME280;44712;52.530;9.760;2023-02-15T12:31:33;102010.34;;;10.46;66.65
58927;BME280;44712;52.530;9.760;2023-02-15T12:34:09;102011.31;;;10.59;65.56
58927;BME280;44712;52.530;9.760;2023-02-15T12:36:42;102014.00;;;10.54;65.61
58927;BME280;44712;52.530;9.760;2023-02-15T12:41:44;102014.28;;;10.98;61.44
58927;BME280;44712;52.530;9.760;2023-02-15T12:44:30;102015.22;;;11.04;63.10
58927;BME280;44712;52.530;9.760;2023-02-15T12:47:18;102009.84;;;11.14;62.27
58927;BME280;44712;52.530;9.760;2023-02-15T12:50:10;102002.66;;;11.19;61.72
58927;BME280;44712;52.530;9.760;2023-02-15T12:52:48;102002.72;;;11.34;60.99
58927;BME280;44712;52.530;9.760;2023-02-15T12:58:12;102002.81;;;11.59;60.36
58927;BME280;44712;52.530;9.760;2023-02-15T13:00:43;102002.94;;;12.18;59.83
58927;BME280;44712;52.530;9.760;2023-02-15T13:03:19;102002.06;;;12.36;57.33
58927;BME280;44712;52.530;9.760;2023-02-15T13:05:50;101984.84;;;12.20;57.22
58927;BME280;44712;52.530;9.760;2023-02-15T13:08:20;101985.66;;;11.71;59.10
58927;BME280;44712;52.530;9.760;2023-02-15T13:11:04;101986.66;;;12.27;57.88
58927;BME280;44712;52.530;9.760;2023-02-15T13:13:34;101977.59;;;12.00;58.41
58927;BME280;44712;52.530;9.760;2023-02-15T13:16:05;101970.28;;;11.68;58.30
58927;BME280;44712;52.530;9.760;2023-02-15T13:18:36;101960.34;;;11.78;58.67
58927;BME280;44712;52.530;9.760;2023-02-15T13:21:18;101952.13;;;11.36;59.50
58927;BME280;44712;52.530;9.760;2023-02-15T13:23:48;101957.59;;;11.52;60.33
58927;BME280;44712;52.530;9.760;2023-02-15T13:26:20;101954.91;;;11.66;59.46
58927;BME280;44712;52.530;9.760;2023-02-15T13:28:56;101951.28;;;11.68;59.62
58927;BME280;44712;52.530;9.760;2023-02-15T13:31:27;101952.19;;;11.64;59.08
58927;BME280;44712;52.530;9.760;2023-02-15T13:34:01;101944.94;;;11.51;59.49
58927;BME280;44712;52.530;9.760;2023-02-15T13:36:55;101948.63;;;11.85;59.15
58927;BME280;44712;52.530;9.760;2023-02-15T13:39:48;101938.66;;;11.78;59.34
58927;BME280;44712;52.530;9.760;2023-02-15T13:42:31;101944.06;;;11.72;59.60
58927;BME280;44712;52.530;9.760;2023-02-15T13:45:32;101947.69;;;11.74;58.92
58927;BME280;44712;52.530;9.760;2023-02-15T13:48:13;101937.72;;;11.71;58.82
58927;BME280;44712;52.530;9.760;2023-02-15T13:56:16;101932.34;;;11.84;57.34
58927;BME280;44712;52.530;9.760;2023-02-15T13:59:04;101941.41;;;12.04;56.04
58927;BME280;44712;52.530;9.760;2023-02-15T14:04:43;101927.78;;;11.80;57.78
58927;BME280;44712;52.530;9.760;2023-02-15T14:07:41;101919.69;;;11.83;57.12
58927;BME280;44712;52.530;9.760;2023-02-15T14:10:26;101926.00;;;11.77;57.82
58927;BME280;44712;52.530;9.760;2023-02-15T14:15:47;101917.81;;;11.54;58.89
58927;BME280;44712;52.530;9.760;2023-02-15T14:26:02;101917.63;;;10.92;60.73
58927;BME280;44712;52.530;9.760;2023-02-15T14:28:40;101915.78;;;10.85;60.69
58927;BME280;44712;52.530;9.760;2023-02-15T14:31:12;101911.28;;;10.82;61.76
58927;BME280;44712;52.530;9.760;2023-02-15T14:33:43;101910.34;;;10.82;62.21
58927;BME280;44712;52.530;9.760;2023-02-15T14:36:16;101911.25;;;10.76;62.92
58927;BME280;44712;52.530;9.760;2023-02-15T14:38:55;101910.31;;;10.66;62.91
58927;BME280;44712;52.530;9.760;2023-02-15T14:41:48;101912.03;;;10.58;63.35
58927;BME280;44712;52.530;9.760;2023-02-15T14:44:39;101908.38;;;10.50;62.82
58927;BME280;44712;52.530;9.760;2023-02-15T14:47:22;101911.09;;;10.50;63.35
58927;BME280;44712;52.530;9.760;2023-02-15T14:49:52;101904.78;;;10.48;64.21
58927;BME280;44712;52.530;9.760;2023-02-15T14:52:18;101901.16;;;10.49;62.96
58927;BME280;44712;52.530;9.760;2023-02-15T14:59:43;101912.91;;;10.49;63.03
58927;BME280;44712;52.530;9.760;2023-02-15T15:02:21;101905.72;;;10.54;62.46
58927;BME280;44712;52.530;9.760;2023-02-15T15:05:14;101910.25;;;10.57;62.78
58927;BME280;44712;52.530;9.760;2023-02-15T15:07:49;101912.00;;;10.50;63.91
58927;BME280;44712;52.530;9.760;2023-02-15T15:12:56;101911.94;;;10.40;64.47
58927;BME280;44712;52.530;9.760;2023-02-15T15:17:59;101907.28;;;10.25;64.08
58927;BME280;44712;52.530;9.760;2023-02-15T15:20:47;101918.97;;;10.19;64.20
58927;BME280;44712;52.530;9.760;2023-02-15T15:25:52;101903.53;;;10.02;65.37
58927;BME280;44712;52.530;9.760;2023-02-15T15:46:00;101894.09;;;9.55;67.23